Aviation Digital Data Service (ADDS)

Output produced by METARs form (2111 UTC 16 February 2019)
found at http://www.aviationweather.gov/metar/data/
 
METAR text: LIRP 162045Z 22004KT 8000 MIFG NSC 05/05 Q1029 NOSIG
Conditions at: LIRP (PISA (CIV/IT-AFB, IT) observed 2045 UTC 16 February 2019
Temperature: 5.0°C (41°F)
Dewpoint: 5.0°C (41°F) [RH = 100%]
Pressure (altimeter): 30.38 inches Hg (1029.0 mb)
Winds: from the SW (220 degrees) at 5 MPH (4 knots; 2.1 m/s)
Visibility: 5 miles ( 8 km)
Ceiling: at least 12,000 feet AGL
Clouds: sky clear below 12,000 feet AGL
Weather: MIFG  (shallow fog)

METAR text: LIRP 162015Z 30002KT CAVOK 06/06 Q1029 NOSIG
Conditions at: LIRP (PISA (CIV/IT-AFB, IT) observed 2015 UTC 16 February 2019
Temperature: 6.0°C (43°F)
Dewpoint: 6.0°C (43°F) [RH = 100%]
Pressure (altimeter): 30.38 inches Hg (1029.0 mb)
Winds: from the WNW (300 degrees) at 2 MPH (2 knots; 1.0 m/s)
Visibility: 6 or more miles (10+ km)
Ceiling: ceiling and visibility are OK
Clouds: unknown
Weather: no significant weather observed at this time

METAR text: LIRP 161945Z 26003KT CAVOK 07/06 Q1029 NOSIG
Conditions at: LIRP (PISA (CIV/IT-AFB, IT) observed 1945 UTC 16 February 2019
Temperature: 7.0°C (45°F)
Dewpoint: 6.0°C (43°F) [RH = 93%]
Pressure (altimeter): 30.38 inches Hg (1029.0 mb)
Winds: from the W (260 degrees) at 3 MPH (3 knots; 1.5 m/s)
Visibility: 6 or more miles (10+ km)
Ceiling: ceiling and visibility are OK
Clouds: unknown
Weather: no significant weather observed at this time

METAR text: LIRP 161915Z VRB02KT CAVOK 08/07 Q1029 NOSIG
Conditions at: LIRP (PISA (CIV/IT-AFB, IT) observed 1915 UTC 16 February 2019
Temperature: 8.0°C (46°F)
Dewpoint: 7.0°C (45°F) [RH = 93%]
Pressure (altimeter): 30.38 inches Hg (1029.0 mb)
Winds: variable direction winds at 2 MPH (2 knots; 1.0 m/s)
Visibility: 6 or more miles (10+ km)
Ceiling: ceiling and visibility are OK
Clouds: unknown
Weather: no significant weather observed at this time

METAR text: LIRP 161845Z 28001KT CAVOK 08/07 Q1029 NOSIG
Conditions at: LIRP (PISA (CIV/IT-AFB, IT) observed 1845 UTC 16 February 2019
Temperature: 8.0°C (46°F)
Dewpoint: 7.0°C (45°F) [RH = 93%]
Pressure (altimeter): 30.38 inches Hg (1029.0 mb)
Winds: from the W (280 degrees) at 1 MPH (1 knots; 0.5 m/s)
Visibility: 6 or more miles (10+ km)
Ceiling: ceiling and visibility are OK
Clouds: unknown
Weather: no significant weather observed at this time

METAR text: LIRP 161815Z 32003KT CAVOK 09/07 Q1029 NOSIG
Conditions at: LIRP (PISA (CIV/IT-AFB, IT) observed 1815 UTC 16 February 2019
Temperature: 9.0°C (48°F)
Dewpoint: 7.0°C (45°F) [RH = 87%]
Pressure (altimeter): 30.38 inches Hg (1029.0 mb)
Winds: from the NW (320 degrees) at 3 MPH (3 knots; 1.5 m/s)
Visibility: 6 or more miles (10+ km)
Ceiling: ceiling and visibility are OK
Clouds: unknown
Weather: no significant weather observed at this time

METAR text: LIRP 161745Z 29003KT CAVOK 10/07 Q1029 NOSIG
Conditions at: LIRP (PISA (CIV/IT-AFB, IT) observed 1745 UTC 16 February 2019
Temperature: 10.0°C (50°F)
Dewpoint: 7.0°C (45°F) [RH = 82%]
Pressure (altimeter): 30.38 inches Hg (1029.0 mb)
Winds: from the WNW (290 degrees) at 3 MPH (3 knots; 1.5 m/s)
Visibility: 6 or more miles (10+ km)
Ceiling: ceiling and visibility are OK
Clouds: unknown
Weather: no significant weather observed at this time

METAR text: LIRP 161715Z 28005KT CAVOK 10/07 Q1029 NOSIG
Conditions at: LIRP (PISA (CIV/IT-AFB, IT) observed 1715 UTC 16 February 2019
Temperature: 10.0°C (50°F)
Dewpoint: 7.0°C (45°F) [RH = 82%]
Pressure (altimeter): 30.38 inches Hg (1029.0 mb)
Winds: from the W (280 degrees) at 6 MPH (5 knots; 2.6 m/s)
Visibility: 6 or more miles (10+ km)
Ceiling: ceiling and visibility are OK
Clouds: unknown
Weather: no significant weather observed at this time

METAR text: LIRP 161645Z 29005KT CAVOK 12/06 Q1029 NOSIG
Conditions at: LIRP (PISA (CIV/IT-AFB, IT) observed 1645 UTC 16 February 2019
Temperature: 12.0°C (54°F)
Dewpoint: 6.0°C (43°F) [RH = 67%]
Pressure (altimeter): 30.38 inches Hg (1029.0 mb)
Winds: from the WNW (290 degrees) at 6 MPH (5 knots; 2.6 m/s)
Visibility: 6 or more miles (10+ km)
Ceiling: ceiling and visibility are OK
Clouds: unknown
Weather: no significant weather observed at this time

METAR text: LIRP 161615Z 30007KT CAVOK 13/05 Q1029 NOSIG
Conditions at: LIRP (PISA (CIV/IT-AFB, IT) observed 1615 UTC 16 February 2019
Temperature: 13.0°C (55°F)
Dewpoint: 5.0°C (41°F) [RH = 58%]
Pressure (altimeter): 30.38 inches Hg (1029.0 mb)
Winds: from the WNW (300 degrees) at 8 MPH (7 knots; 3.6 m/s)
Visibility: 6 or more miles (10+ km)
Ceiling: ceiling and visibility are OK
Clouds: unknown
Weather: no significant weather observed at this time

METAR text: LIRP 161545Z 28007KT CAVOK 14/03 Q1029 NOSIG
Conditions at: LIRP (PISA (CIV/IT-AFB, IT) observed 1545 UTC 16 February 2019
Temperature: 14.0°C (57°F)
Dewpoint: 3.0°C (37°F) [RH = 47%]
Pressure (altimeter): 30.38 inches Hg (1029.0 mb)
Winds: from the W (280 degrees) at 8 MPH (7 knots; 3.6 m/s)
Visibility: 6 or more miles (10+ km)
Ceiling: ceiling and visibility are OK
Clouds: unknown
Weather: no significant weather observed at this time

METAR text: LIRP 161515Z 32006KT CAVOK 15/01 Q1029 NOSIG
Conditions at: LIRP (PISA (CIV/IT-AFB, IT) observed 1515 UTC 16 February 2019
Temperature: 15.0°C (59°F)
Dewpoint: 1.0°C (34°F) [RH = 39%]
Pressure (altimeter): 30.38 inches Hg (1029.0 mb)
Winds: from the NW (320 degrees) at 7 MPH (6 knots; 3.1 m/s)
Visibility: 6 or more miles (10+ km)
Ceiling: ceiling and visibility are OK
Clouds: unknown
Weather: no significant weather observed at this time

METAR text: LIRP 161445Z 31007KT CAVOK 16/02 Q1029 NOSIG
Conditions at: LIRP (PISA (CIV/IT-AFB, IT) observed 1445 UTC 16 February 2019
Temperature: 16.0°C (61°F)
Dewpoint: 2.0°C (36°F) [RH = 39%]
Pressure (altimeter): 30.38 inches Hg (1029.0 mb)
Winds: from the NW (310 degrees) at 8 MPH (7 knots; 3.6 m/s)
Visibility: 6 or more miles (10+ km)
Ceiling: ceiling and visibility are OK
Clouds: unknown
Weather: no significant weather observed at this time

METAR text: LIRP 161415Z 31006KT CAVOK 17/01 Q1029 NOSIG
Conditions at: LIRP (PISA (CIV/IT-AFB, IT) observed 1415 UTC 16 February 2019
Temperature: 17.0°C (63°F)
Dewpoint: 1.0°C (34°F) [RH = 34%]
Pressure (altimeter): 30.38 inches Hg (1029.0 mb)
Winds: from the NW (310 degrees) at 7 MPH (6 knots; 3.1 m/s)
Visibility: 6 or more miles (10+ km)
Ceiling: ceiling and visibility are OK
Clouds: unknown
Weather: no significant weather observed at this time

METAR text: LIRP 161345Z 30005KT CAVOK 17/01 Q1029 NOSIG
Conditions at: LIRP (PISA (CIV/IT-AFB, IT) observed 1345 UTC 16 February 2019
Temperature: 17.0°C (63°F)
Dewpoint: 1.0°C (34°F) [RH = 34%]
Pressure (altimeter): 30.38 inches Hg (1029.0 mb)
Winds: from the WNW (300 degrees) at 6 MPH (5 knots; 2.6 m/s)
Visibility: 6 or more miles (10+ km)
Ceiling: ceiling and visibility are OK
Clouds: unknown
Weather: no significant weather observed at this time

METAR text: LIRP 161315Z 33004KT CAVOK 17/01 Q1030 NOSIG
Conditions at: LIRP (PISA (CIV/IT-AFB, IT) observed 1315 UTC 16 February 2019
Temperature: 17.0°C (63°F)
Dewpoint: 1.0°C (34°F) [RH = 34%]
Pressure (altimeter): 30.41 inches Hg (1030.0 mb)
Winds: from the NNW (330 degrees) at 5 MPH (4 knots; 2.1 m/s)
Visibility: 6 or more miles (10+ km)
Ceiling: ceiling and visibility are OK
Clouds: unknown
Weather: no significant weather observed at this time

METAR text: LIRP 161245Z 33005KT CAVOK 16/01 Q1030 NOSIG
Conditions at: LIRP (PISA (CIV/IT-AFB, IT) observed 1245 UTC 16 February 2019
Temperature: 16.0°C (61°F)
Dewpoint: 1.0°C (34°F) [RH = 36%]
Pressure (altimeter): 30.41 inches Hg (1030.0 mb)
Winds: from the NNW (330 degrees) at 6 MPH (5 knots; 2.6 m/s)
Visibility: 6 or more miles (10+ km)
Ceiling: ceiling and visibility are OK
Clouds: unknown
Weather: no significant weather observed at this time

METAR text: LIRP 161215Z VRB02KT CAVOK 15/01 Q1031 NOSIG
Conditions at: LIRP (PISA (CIV/IT-AFB, IT) observed 1215 UTC 16 February 2019
Temperature: 15.0°C (59°F)
Dewpoint: 1.0°C (34°F) [RH = 39%]
Pressure (altimeter): 30.44 inches Hg (1031.0 mb)
Winds: variable direction winds at 2 MPH (2 knots; 1.0 m/s)
Visibility: 6 or more miles (10+ km)
Ceiling: ceiling and visibility are OK
Clouds: unknown
Weather: no significant weather observed at this time

METAR text: LIRP 161145Z 19003KT CAVOK 15/02 Q1031 NOSIG
Conditions at: LIRP (PISA (CIV/IT-AFB, IT) observed 1145 UTC 16 February 2019
Temperature: 15.0°C (59°F)
Dewpoint: 2.0°C (36°F) [RH = 41%]
Pressure (altimeter): 30.44 inches Hg (1031.0 mb)
Winds: from the S (190 degrees) at 3 MPH (3 knots; 1.5 m/s)
Visibility: 6 or more miles (10+ km)
Ceiling: ceiling and visibility are OK
Clouds: unknown
Weather: no significant weather observed at this time

METAR text: LIRP 161115Z 17002KT CAVOK 15/02 Q1031 NOSIG
Conditions at: LIRP (PISA (CIV/IT-AFB, IT) observed 1115 UTC 16 February 2019
Temperature: 15.0°C (59°F)
Dewpoint: 2.0°C (36°F) [RH = 41%]
Pressure (altimeter): 30.44 inches Hg (1031.0 mb)
Winds: from the S (170 degrees) at 2 MPH (2 knots; 1.0 m/s)
Visibility: 6 or more miles (10+ km)
Ceiling: ceiling and visibility are OK
Clouds: unknown
Weather: no significant weather observed at this time

METAR text: LIRP 161045Z 15004KT CAVOK 14/02 Q1031 NOSIG
Conditions at: LIRP (PISA (CIV/IT-AFB, IT) observed 1045 UTC 16 February 2019
Temperature: 14.0°C (57°F)
Dewpoint: 2.0°C (36°F) [RH = 44%]
Pressure (altimeter): 30.44 inches Hg (1031.0 mb)
Winds: from the SSE (150 degrees) at 5 MPH (4 knots; 2.1 m/s)
Visibility: 6 or more miles (10+ km)
Ceiling: ceiling and visibility are OK
Clouds: unknown
Weather: no significant weather observed at this time

METAR text: LIRP 161015Z 13006KT CAVOK 13/02 Q1031 NOSIG
Conditions at: LIRP (PISA (CIV/IT-AFB, IT) observed 1015 UTC 16 February 2019
Temperature: 13.0°C (55°F)
Dewpoint: 2.0°C (36°F) [RH = 47%]
Pressure (altimeter): 30.44 inches Hg (1031.0 mb)
Winds: from the SE (130 degrees) at 7 MPH (6 knots; 3.1 m/s)
Visibility: 6 or more miles (10+ km)
Ceiling: ceiling and visibility are OK
Clouds: unknown
Weather: no significant weather observed at this time

METAR text: LIRP 160945Z 12006KT CAVOK 12/03 Q1031 NOSIG
Conditions at: LIRP (PISA (CIV/IT-AFB, IT) observed 0945 UTC 16 February 2019
Temperature: 12.0°C (54°F)
Dewpoint: 3.0°C (37°F) [RH = 54%]
Pressure (altimeter): 30.44 inches Hg (1031.0 mb)
Winds: from the ESE (120 degrees) at 7 MPH (6 knots; 3.1 m/s)
Visibility: 6 or more miles (10+ km)
Ceiling: ceiling and visibility are OK
Clouds: unknown
Weather: no significant weather observed at this time

METAR text: LIRP 160915Z 09003KT CAVOK 10/02 Q1031 NOSIG
Conditions at: LIRP (PISA (CIV/IT-AFB, IT) observed 0915 UTC 16 February 2019
Temperature: 10.0°C (50°F)
Dewpoint: 2.0°C (36°F) [RH = 57%]
Pressure (altimeter): 30.44 inches Hg (1031.0 mb)
Winds: from the E (90 degrees) at 3 MPH (3 knots; 1.5 m/s)
Visibility: 6 or more miles (10+ km)
Ceiling: ceiling and visibility are OK
Clouds: unknown
Weather: no significant weather observed at this time

METAR text: LIRP 160845Z 12006KT CAVOK 08/03 Q1031 NOSIG
Conditions at: LIRP (PISA (CIV/IT-AFB, IT) observed 0845 UTC 16 February 2019
Temperature: 8.0°C (46°F)
Dewpoint: 3.0°C (37°F) [RH = 71%]
Pressure (altimeter): 30.44 inches Hg (1031.0 mb)
Winds: from the ESE (120 degrees) at 7 MPH (6 knots; 3.1 m/s)
Visibility: 6 or more miles (10+ km)
Ceiling: ceiling and visibility are OK
Clouds: unknown
Weather: no significant weather observed at this time

METAR text: LIRP 160815Z 13004KT CAVOK 07/03 Q1031 NOSIG
Conditions at: LIRP (PISA (CIV/IT-AFB, IT) observed 0815 UTC 16 February 2019
Temperature: 7.0°C (45°F)
Dewpoint: 3.0°C (37°F) [RH = 76%]
Pressure (altimeter): 30.44 inches Hg (1031.0 mb)
Winds: from the SE (130 degrees) at 5 MPH (4 knots; 2.1 m/s)
Visibility: 6 or more miles (10+ km)
Ceiling: ceiling and visibility are OK
Clouds: unknown
Weather: no significant weather observed at this time

METAR text: LIRP 160745Z 14005KT CAVOK 05/02 Q1031 NOSIG
Conditions at: LIRP (PISA (CIV/IT-AFB, IT) observed 0745 UTC 16 February 2019
Temperature: 5.0°C (41°F)
Dewpoint: 2.0°C (36°F) [RH = 81%]
Pressure (altimeter): 30.44 inches Hg (1031.0 mb)
Winds: from the SE (140 degrees) at 6 MPH (5 knots; 2.6 m/s)
Visibility: 6 or more miles (10+ km)
Ceiling: ceiling and visibility are OK
Clouds: unknown
Weather: no significant weather observed at this time

METAR text: LIRP 160715Z 11003KT CAVOK 04/02 Q1030 NOSIG
Conditions at: LIRP (PISA (CIV/IT-AFB, IT) observed 0715 UTC 16 February 2019
Temperature: 4.0°C (39°F)
Dewpoint: 2.0°C (36°F) [RH = 87%]
Pressure (altimeter): 30.41 inches Hg (1030.0 mb)
Winds: from the ESE (110 degrees) at 3 MPH (3 knots; 1.5 m/s)
Visibility: 6 or more miles (10+ km)
Ceiling: ceiling and visibility are OK
Clouds: unknown
Weather: no significant weather observed at this time

METAR text: LIRP 160645Z 13001KT CAVOK 03/01 Q1030 NOSIG
Conditions at: LIRP (PISA (CIV/IT-AFB, IT) observed 0645 UTC 16 February 2019
Temperature: 3.0°C (37°F)
Dewpoint: 1.0°C (34°F) [RH = 87%]
Pressure (altimeter): 30.41 inches Hg (1030.0 mb)
Winds: from the SE (130 degrees) at 1 MPH (1 knots; 0.5 m/s)
Visibility: 6 or more miles (10+ km)
Ceiling: ceiling and visibility are OK
Clouds: unknown
Weather: no significant weather observed at this time

METAR text: LIRP 160615Z VRB01KT CAVOK 03/01 Q1030 NOSIG
Conditions at: LIRP (PISA (CIV/IT-AFB, IT) observed 0615 UTC 16 February 2019
Temperature: 3.0°C (37°F)
Dewpoint: 1.0°C (34°F) [RH = 87%]
Pressure (altimeter): 30.41 inches Hg (1030.0 mb)
Winds: variable direction winds at 1 MPH (1 knots; 0.5 m/s)
Visibility: 6 or more miles (10+ km)
Ceiling: ceiling and visibility are OK
Clouds: unknown
Weather: no significant weather observed at this time

METAR text: LIRP 160545Z 06004KT CAVOK 03/01 Q1030 NOSIG
Conditions at: LIRP (PISA (CIV/IT-AFB, IT) observed 0545 UTC 16 February 2019
Temperature: 3.0°C (37°F)
Dewpoint: 1.0°C (34°F) [RH = 87%]
Pressure (altimeter): 30.41 inches Hg (1030.0 mb)
Winds: from the ENE (60 degrees) at 5 MPH (4 knots; 2.1 m/s)
Visibility: 6 or more miles (10+ km)
Ceiling: ceiling and visibility are OK
Clouds: unknown
Weather: no significant weather observed at this time

METAR text: LIRP 160515Z 06003KT CAVOK 03/00 Q1030 NOSIG
Conditions at: LIRP (PISA (CIV/IT-AFB, IT) observed 0515 UTC 16 February 2019
Temperature: 3.0°C (37°F)
Dewpoint: 0.0°C (32°F) [RH = 81%]
Pressure (altimeter): 30.41 inches Hg (1030.0 mb)
Winds: from the ENE (60 degrees) at 3 MPH (3 knots; 1.5 m/s)
Visibility: 6 or more miles (10+ km)
Ceiling: ceiling and visibility are OK
Clouds: unknown
Weather: no significant weather observed at this time

METAR text: LIRP 160445Z 07003KT CAVOK 05/01 Q1030 NOSIG
Conditions at: LIRP (PISA (CIV/IT-AFB, IT) observed 0445 UTC 16 February 2019
Temperature: 5.0°C (41°F)
Dewpoint: 1.0°C (34°F) [RH = 75%]
Pressure (altimeter): 30.41 inches Hg (1030.0 mb)
Winds: from the ENE (70 degrees) at 3 MPH (3 knots; 1.5 m/s)
Visibility: 6 or more miles (10+ km)
Ceiling: ceiling and visibility are OK
Clouds: unknown
Weather: no significant weather observed at this time

METAR text: LIRP 160415Z VRB01KT CAVOK 05/M00 Q1030 NOSIG
Conditions at: LIRP (PISA (CIV/IT-AFB, IT) observed 0415 UTC 16 February 2019
Temperature: 5.0°C (41°F)
Dewpoint: 0.0°C (32°F) [RH = 70%]
Pressure (altimeter): 30.41 inches Hg (1030.0 mb)
Winds: variable direction winds at 1 MPH (1 knots; 0.5 m/s)
Visibility: 6 or more miles (10+ km)
Ceiling: ceiling and visibility are OK
Clouds: unknown
Weather: no significant weather observed at this time

METAR text: LIRP 160345Z 17003KT CAVOK 06/M00 Q1030 NOSIG
Conditions at: LIRP (PISA (CIV/IT-AFB, IT) observed 0345 UTC 16 February 2019
Temperature: 6.0°C (43°F)
Dewpoint: 0.0°C (32°F) [RH = 65%]
Pressure (altimeter): 30.41 inches Hg (1030.0 mb)
Winds: from the S (170 degrees) at 3 MPH (3 knots; 1.5 m/s)
Visibility: 6 or more miles (10+ km)
Ceiling: ceiling and visibility are OK
Clouds: unknown
Weather: no significant weather observed at this time

METAR text: LIRP 160315Z 05004KT CAVOK 06/M00 Q1030 NOSIG
Conditions at: LIRP (PISA (CIV/IT-AFB, IT) observed 0315 UTC 16 February 2019
Temperature: 6.0°C (43°F)
Dewpoint: 0.0°C (32°F) [RH = 65%]
Pressure (altimeter): 30.41 inches Hg (1030.0 mb)
Winds: from the NE (50 degrees) at 5 MPH (4 knots; 2.1 m/s)
Visibility: 6 or more miles (10+ km)
Ceiling: ceiling and visibility are OK
Clouds: unknown
Weather: no significant weather observed at this time

METAR text: LIRP 160245Z 02003KT CAVOK 07/M01 Q1030 NOSIG
Conditions at: LIRP (PISA (CIV/IT-AFB, IT) observed 0245 UTC 16 February 2019
Temperature: 7.0°C (45°F)
Dewpoint: -1.0°C (30°F) [RH = 57%]
Pressure (altimeter): 30.41 inches Hg (1030.0 mb)
Winds: from the NNE (20 degrees) at 3 MPH (3 knots; 1.5 m/s)
Visibility: 6 or more miles (10+ km)
Ceiling: ceiling and visibility are OK
Clouds: unknown
Weather: no significant weather observed at this time

METAR text: LIRP 160215Z 06008KT CAVOK 08/M00 Q1030 NOSIG
Conditions at: LIRP (PISA (CIV/IT-AFB, IT) observed 0215 UTC 16 February 2019
Temperature: 8.0°C (46°F)
Dewpoint: 0.0°C (32°F) [RH = 57%]
Pressure (altimeter): 30.41 inches Hg (1030.0 mb)
Winds: from the ENE (60 degrees) at 9 MPH (8 knots; 4.1 m/s)
Visibility: 6 or more miles (10+ km)
Ceiling: ceiling and visibility are OK
Clouds: unknown
Weather: no significant weather observed at this time

METAR text: LIRP 160145Z 06006KT CAVOK 08/00 Q1030 NOSIG
Conditions at: LIRP (PISA (CIV/IT-AFB, IT) observed 0145 UTC 16 February 2019
Temperature: 8.0°C (46°F)
Dewpoint: 0.0°C (32°F) [RH = 57%]
Pressure (altimeter): 30.41 inches Hg (1030.0 mb)
Winds: from the ENE (60 degrees) at 7 MPH (6 knots; 3.1 m/s)
Visibility: 6 or more miles (10+ km)
Ceiling: ceiling and visibility are OK
Clouds: unknown
Weather: no significant weather observed at this time

METAR text: LIRP 160115Z 12009KT CAVOK 09/00 Q1030 NOSIG
Conditions at: LIRP (PISA (CIV/IT-AFB, IT) observed 0115 UTC 16 February 2019
Temperature: 9.0°C (48°F)
Dewpoint: 0.0°C (32°F) [RH = 53%]
Pressure (altimeter): 30.41 inches Hg (1030.0 mb)
Winds: from the ESE (120 degrees) at 10 MPH (9 knots; 4.6 m/s)
Visibility: 6 or more miles (10+ km)
Ceiling: ceiling and visibility are OK
Clouds: unknown
Weather: no significant weather observed at this time

METAR text: LIRP 160045Z 14015KT CAVOK 06/02 Q1030 NOSIG
Conditions at: LIRP (PISA (CIV/IT-AFB, IT) observed 0045 UTC 16 February 2019
Temperature: 6.0°C (43°F)
Dewpoint: 2.0°C (36°F) [RH = 75%]
Pressure (altimeter): 30.41 inches Hg (1030.0 mb)
Winds: from the SE (140 degrees) at 17 MPH (15 knots; 7.7 m/s)
Visibility: 6 or more miles (10+ km)
Ceiling: ceiling and visibility are OK
Clouds: unknown
Weather: no significant weather observed at this time

METAR text: LIRP 160015Z 14012KT CAVOK 06/05 Q1030 NOSIG
Conditions at: LIRP (PISA (CIV/IT-AFB, IT) observed 0015 UTC 16 February 2019
Temperature: 6.0°C (43°F)
Dewpoint: 5.0°C (41°F) [RH = 93%]
Pressure (altimeter): 30.41 inches Hg (1030.0 mb)
Winds: from the SE (140 degrees) at 14 MPH (12 knots; 6.2 m/s)
Visibility: 6 or more miles (10+ km)
Ceiling: ceiling and visibility are OK
Clouds: unknown
Weather: no significant weather observed at this time

METAR text: LIRP 152345Z 14011KT CAVOK 05/05 Q1030 NOSIG
Conditions at: LIRP (PISA (CIV/IT-AFB, IT) observed 2345 UTC 15 February 2019
Temperature: 5.0°C (41°F)
Dewpoint: 5.0°C (41°F) [RH = 100%]
Pressure (altimeter): 30.41 inches Hg (1030.0 mb)
Winds: from the SE (140 degrees) at 13 MPH (11 knots; 5.7 m/s)
Visibility: 6 or more miles (10+ km)
Ceiling: ceiling and visibility are OK
Clouds: unknown
Weather: no significant weather observed at this time

METAR text: LIRP 152315Z VRB03KT CAVOK 05/05 Q1030 NOSIG
Conditions at: LIRP (PISA (CIV/IT-AFB, IT) observed 2315 UTC 15 February 2019
Temperature: 5.0°C (41°F)
Dewpoint: 5.0°C (41°F) [RH = 100%]
Pressure (altimeter): 30.41 inches Hg (1030.0 mb)
Winds: variable direction winds at 3 MPH (3 knots; 1.5 m/s)
Visibility: 6 or more miles (10+ km)
Ceiling: ceiling and visibility are OK
Clouds: unknown
Weather: no significant weather observed at this time

METAR text: LIRP 152245Z 11007KT CAVOK 04/04 Q1030 NOSIG
Conditions at: LIRP (PISA (CIV/IT-AFB, IT) observed 2245 UTC 15 February 2019
Temperature: 4.0°C (39°F)
Dewpoint: 4.0°C (39°F) [RH = 100%]
Pressure (altimeter): 30.41 inches Hg (1030.0 mb)
Winds: from the ESE (110 degrees) at 8 MPH (7 knots; 3.6 m/s)
Visibility: 6 or more miles (10+ km)
Ceiling: ceiling and visibility are OK
Clouds: unknown
Weather: no significant weather observed at this time

METAR text: LIRP 152215Z 14004KT 2500 BR FEW004 04/04 Q1030 NOSIG
Conditions at: LIRP (PISA (CIV/IT-AFB, IT) observed 2215 UTC 15 February 2019
Temperature: 4.0°C (39°F)
Dewpoint: 4.0°C (39°F) [RH = 100%]
Pressure (altimeter): 30.41 inches Hg (1030.0 mb)
Winds: from the SE (140 degrees) at 5 MPH (4 knots; 2.1 m/s)
Visibility: 1.55 miles (2.49 km)
Ceiling: at least 12,000 feet AGL
Clouds: few clouds at 400 feet AGL
Weather: BR  (mist)

METAR text: LIRP 152145Z 09005KT 0400 R04R/0600 FG BKN001 04/04 Q1030 TEMPO 0200 FG
Conditions at: LIRP (PISA (CIV/IT-AFB, IT) observed 2145 UTC 15 February 2019
Temperature: 4.0°C (39°F)
Dewpoint: 4.0°C (39°F) [RH = 100%]
Pressure (altimeter): 30.41 inches Hg (1030.0 mb)
Winds: from the E (90 degrees) at 6 MPH (5 knots; 2.6 m/s)
Visibility: 0.25 miles (0.40 km)
Ceiling: 100 feet AGL
Clouds: broken clouds at 100 feet AGL
Weather: FG  (fog)

METAR text: LIRP 152115Z VRB02KT 0250 R04R/0350 FG BKN001 04/04 Q1030 TEMPO 0100 FG
Conditions at: LIRP (PISA (CIV/IT-AFB, IT) observed 2115 UTC 15 February 2019
Temperature: 4.0°C (39°F)
Dewpoint: 4.0°C (39°F) [RH = 100%]
Pressure (altimeter): 30.41 inches Hg (1030.0 mb)
Winds: variable direction winds at 2 MPH (2 knots; 1.0 m/s)
Visibility: 0.16 miles (0.26 km)
Ceiling: 100 feet AGL
Clouds: broken clouds at 100 feet AGL
Weather: FG  (fog)

METAR text: LIRP 152045Z VRB02KT 0200 R04R/0250 FG BKN001 04/04 Q1029 TEMPO 0100 FG
Conditions at: LIRP (PISA (CIV/IT-AFB, IT) observed 2045 UTC 15 February 2019
Temperature: 4.0°C (39°F)
Dewpoint: 4.0°C (39°F) [RH = 100%]
Pressure (altimeter): 30.38 inches Hg (1029.0 mb)
Winds: variable direction winds at 2 MPH (2 knots; 1.0 m/s)
Visibility: 0.12 miles (0.19 km)
Ceiling: 100 feet AGL
Clouds: broken clouds at 100 feet AGL
Weather: FG  (fog)

METAR text: LIRP 152015Z 14005KT 0150 R04R/0225 FG BKN001 05/05 Q1029 TEMPO 0100 FG
Conditions at: LIRP (PISA (CIV/IT-AFB, IT) observed 2015 UTC 15 February 2019
Temperature: 5.0°C (41°F)
Dewpoint: 5.0°C (41°F) [RH = 100%]
Pressure (altimeter): 30.38 inches Hg (1029.0 mb)
Winds: from the SE (140 degrees) at 6 MPH (5 knots; 2.6 m/s)
Visibility: 0.09 miles (0.14 km)
Ceiling: 100 feet AGL
Clouds: broken clouds at 100 feet AGL
Weather: FG  (fog)

METAR text: LIRP 151945Z 13001KT 0200 R04R/0225 FG BKN001 07/07 Q1029 TEMPO 0100 FG
Conditions at: LIRP (PISA (CIV/IT-AFB, IT) observed 1945 UTC 15 February 2019
Temperature: 7.0°C (45°F)
Dewpoint: 7.0°C (45°F) [RH = 100%]
Pressure (altimeter): 30.38 inches Hg (1029.0 mb)
Winds: from the SE (130 degrees) at 1 MPH (1 knots; 0.5 m/s)
Visibility: 0.12 miles (0.19 km)
Ceiling: 100 feet AGL
Clouds: broken clouds at 100 feet AGL
Weather: FG  (fog)

METAR text: LIRP 151915Z VRB01KT 0400 R04R/0750 FG BKN001 08/08 Q1029 TEMPO 0200 FG
Conditions at: LIRP (PISA (CIV/IT-AFB, IT) observed 1915 UTC 15 February 2019
Temperature: 8.0°C (46°F)
Dewpoint: 8.0°C (46°F) [RH = 100%]
Pressure (altimeter): 30.38 inches Hg (1029.0 mb)
Winds: variable direction winds at 1 MPH (1 knots; 0.5 m/s)
Visibility: 0.25 miles (0.40 km)
Ceiling: 100 feet AGL
Clouds: broken clouds at 100 feet AGL
Weather: FG  (fog)

METAR text: LIRP 151845Z 30003KT CAVOK 08/08 Q1028 NOSIG
Conditions at: LIRP (PISA (CIV/IT-AFB, IT) observed 1845 UTC 15 February 2019
Temperature: 8.0°C (46°F)
Dewpoint: 8.0°C (46°F) [RH = 100%]
Pressure (altimeter): 30.35 inches Hg (1028.0 mb)
Winds: from the WNW (300 degrees) at 3 MPH (3 knots; 1.5 m/s)
Visibility: 6 or more miles (10+ km)
Ceiling: ceiling and visibility are OK
Clouds: unknown
Weather: no significant weather observed at this time

METAR text: LIRP 151815Z 26003KT CAVOK 08/08 Q1028 NOSIG
Conditions at: LIRP (PISA (CIV/IT-AFB, IT) observed 1815 UTC 15 February 2019
Temperature: 8.0°C (46°F)
Dewpoint: 8.0°C (46°F) [RH = 100%]
Pressure (altimeter): 30.35 inches Hg (1028.0 mb)
Winds: from the W (260 degrees) at 3 MPH (3 knots; 1.5 m/s)
Visibility: 6 or more miles (10+ km)
Ceiling: ceiling and visibility are OK
Clouds: unknown
Weather: no significant weather observed at this time

METAR text: LIRP 151745Z 24002KT CAVOK 10/08 Q1028 NOSIG
Conditions at: LIRP (PISA (CIV/IT-AFB, IT) observed 1745 UTC 15 February 2019
Temperature: 10.0°C (50°F)
Dewpoint: 8.0°C (46°F) [RH = 87%]
Pressure (altimeter): 30.35 inches Hg (1028.0 mb)
Winds: from the WSW (240 degrees) at 2 MPH (2 knots; 1.0 m/s)
Visibility: 6 or more miles (10+ km)
Ceiling: ceiling and visibility are OK
Clouds: unknown
Weather: no significant weather observed at this time

METAR text: LIRP 151715Z 01002KT CAVOK 11/08 Q1028 NOSIG
Conditions at: LIRP (PISA (CIV/IT-AFB, IT) observed 1715 UTC 15 February 2019
Temperature: 11.0°C (52°F)
Dewpoint: 8.0°C (46°F) [RH = 82%]
Pressure (altimeter): 30.35 inches Hg (1028.0 mb)
Winds: from the N (10 degrees) at 2 MPH (2 knots; 1.0 m/s)
Visibility: 6 or more miles (10+ km)
Ceiling: ceiling and visibility are OK
Clouds: unknown
Weather: no significant weather observed at this time

METAR text: LIRP 151645Z 32005KT CAVOK 13/08 Q1028 NOSIG
Conditions at: LIRP (PISA (CIV/IT-AFB, IT) observed 1645 UTC 15 February 2019
Temperature: 13.0°C (55°F)
Dewpoint: 8.0°C (46°F) [RH = 72%]
Pressure (altimeter): 30.35 inches Hg (1028.0 mb)
Winds: from the NW (320 degrees) at 6 MPH (5 knots; 2.6 m/s)
Visibility: 6 or more miles (10+ km)
Ceiling: ceiling and visibility are OK
Clouds: unknown
Weather: no significant weather observed at this time

METAR text: LIRP 151615Z 29005KT CAVOK 13/08 Q1028 NOSIG
Conditions at: LIRP (PISA (CIV/IT-AFB, IT) observed 1615 UTC 15 February 2019
Temperature: 13.0°C (55°F)
Dewpoint: 8.0°C (46°F) [RH = 72%]
Pressure (altimeter): 30.35 inches Hg (1028.0 mb)
Winds: from the WNW (290 degrees) at 6 MPH (5 knots; 2.6 m/s)
Visibility: 6 or more miles (10+ km)
Ceiling: ceiling and visibility are OK
Clouds: unknown
Weather: no significant weather observed at this time

METAR text: LIRP 151545Z 28006KT CAVOK 15/08 Q1028 NOSIG
Conditions at: LIRP (PISA (CIV/IT-AFB, IT) observed 1545 UTC 15 February 2019
Temperature: 15.0°C (59°F)
Dewpoint: 8.0°C (46°F) [RH = 63%]
Pressure (altimeter): 30.35 inches Hg (1028.0 mb)
Winds: from the W (280 degrees) at 7 MPH (6 knots; 3.1 m/s)
Visibility: 6 or more miles (10+ km)
Ceiling: ceiling and visibility are OK
Clouds: unknown
Weather: no significant weather observed at this time

METAR text: LIRP 151515Z 27007KT CAVOK 15/06 Q1028 NOSIG
Conditions at: LIRP (PISA (CIV/IT-AFB, IT) observed 1515 UTC 15 February 2019
Temperature: 15.0°C (59°F)
Dewpoint: 6.0°C (43°F) [RH = 55%]
Pressure (altimeter): 30.35 inches Hg (1028.0 mb)
Winds: from the W (270 degrees) at 8 MPH (7 knots; 3.6 m/s)
Visibility: 6 or more miles (10+ km)
Ceiling: ceiling and visibility are OK
Clouds: unknown
Weather: no significant weather observed at this time

METAR text: LIRP 151445Z 31006KT CAVOK 15/06 Q1028 NOSIG
Conditions at: LIRP (PISA (CIV/IT-AFB, IT) observed 1445 UTC 15 February 2019
Temperature: 15.0°C (59°F)
Dewpoint: 6.0°C (43°F) [RH = 55%]
Pressure (altimeter): 30.35 inches Hg (1028.0 mb)
Winds: from the NW (310 degrees) at 7 MPH (6 knots; 3.1 m/s)
Visibility: 6 or more miles (10+ km)
Ceiling: ceiling and visibility are OK
Clouds: unknown
Weather: no significant weather observed at this time

METAR text: LIRP 151415Z 30008KT CAVOK 15/08 Q1028 NOSIG
Conditions at: LIRP (PISA (CIV/IT-AFB, IT) observed 1415 UTC 15 February 2019
Temperature: 15.0°C (59°F)
Dewpoint: 8.0°C (46°F) [RH = 63%]
Pressure (altimeter): 30.35 inches Hg (1028.0 mb)
Winds: from the WNW (300 degrees) at 9 MPH (8 knots; 4.1 m/s)
Visibility: 6 or more miles (10+ km)
Ceiling: ceiling and visibility are OK
Clouds: unknown
Weather: no significant weather observed at this time

METAR text: LIRP 151345Z 26007KT CAVOK 16/05 Q1029 NOSIG
Conditions at: LIRP (PISA (CIV/IT-AFB, IT) observed 1345 UTC 15 February 2019
Temperature: 16.0°C (61°F)
Dewpoint: 5.0°C (41°F) [RH = 48%]
Pressure (altimeter): 30.38 inches Hg (1029.0 mb)
Winds: from the W (260 degrees) at 8 MPH (7 knots; 3.6 m/s)
Visibility: 6 or more miles (10+ km)
Ceiling: ceiling and visibility are OK
Clouds: unknown
Weather: no significant weather observed at this time

METAR text: LIRP 151315Z 27005KT CAVOK 15/06 Q1029 NOSIG
Conditions at: LIRP (PISA (CIV/IT-AFB, IT) observed 1315 UTC 15 February 2019
Temperature: 15.0°C (59°F)
Dewpoint: 6.0°C (43°F) [RH = 55%]
Pressure (altimeter): 30.38 inches Hg (1029.0 mb)
Winds: from the W (270 degrees) at 6 MPH (5 knots; 2.6 m/s)
Visibility: 6 or more miles (10+ km)
Ceiling: ceiling and visibility are OK
Clouds: unknown
Weather: no significant weather observed at this time

METAR text: LIRP 151245Z 31002KT CAVOK 15/05 Q1029 NOSIG
Conditions at: LIRP (PISA (CIV/IT-AFB, IT) observed 1245 UTC 15 February 2019
Temperature: 15.0°C (59°F)
Dewpoint: 5.0°C (41°F) [RH = 51%]
Pressure (altimeter): 30.38 inches Hg (1029.0 mb)
Winds: from the NW (310 degrees) at 2 MPH (2 knots; 1.0 m/s)
Visibility: 6 or more miles (10+ km)
Ceiling: ceiling and visibility are OK
Clouds: unknown
Weather: no significant weather observed at this time

METAR text: LIRP 151215Z VRB02KT CAVOK 14/05 Q1029 NOSIG
Conditions at: LIRP (PISA (CIV/IT-AFB, IT) observed 1215 UTC 15 February 2019
Temperature: 14.0°C (57°F)
Dewpoint: 5.0°C (41°F) [RH = 55%]
Pressure (altimeter): 30.38 inches Hg (1029.0 mb)
Winds: variable direction winds at 2 MPH (2 knots; 1.0 m/s)
Visibility: 6 or more miles (10+ km)
Ceiling: ceiling and visibility are OK
Clouds: unknown
Weather: no significant weather observed at this time

METAR text: LIRP 151145Z VRB02KT CAVOK 14/05 Q1030 NOSIG
Conditions at: LIRP (PISA (CIV/IT-AFB, IT) observed 1145 UTC 15 February 2019
Temperature: 14.0°C (57°F)
Dewpoint: 5.0°C (41°F) [RH = 55%]
Pressure (altimeter): 30.41 inches Hg (1030.0 mb)
Winds: variable direction winds at 2 MPH (2 knots; 1.0 m/s)
Visibility: 6 or more miles (10+ km)
Ceiling: ceiling and visibility are OK
Clouds: unknown
Weather: no significant weather observed at this time

METAR text: LIRP 151115Z VRB02KT CAVOK 13/05 Q1030 NOSIG
Conditions at: LIRP (PISA (CIV/IT-AFB, IT) observed 1115 UTC 15 February 2019
Temperature: 13.0°C (55°F)
Dewpoint: 5.0°C (41°F) [RH = 58%]
Pressure (altimeter): 30.41 inches Hg (1030.0 mb)
Winds: variable direction winds at 2 MPH (2 knots; 1.0 m/s)
Visibility: 6 or more miles (10+ km)
Ceiling: ceiling and visibility are OK
Clouds: unknown
Weather: no significant weather observed at this time

METAR text: LIRP 151045Z VRB02KT CAVOK 12/06 Q1031 NOSIG
Conditions at: LIRP (PISA (CIV/IT-AFB, IT) observed 1045 UTC 15 February 2019
Temperature: 12.0°C (54°F)
Dewpoint: 6.0°C (43°F) [RH = 67%]
Pressure (altimeter): 30.44 inches Hg (1031.0 mb)
Winds: variable direction winds at 2 MPH (2 knots; 1.0 m/s)
Visibility: 6 or more miles (10+ km)
Ceiling: ceiling and visibility are OK
Clouds: unknown
Weather: no significant weather observed at this time

METAR text: LIRP 151015Z VRB02KT CAVOK 11/06 Q1031 NOSIG
Conditions at: LIRP (PISA (CIV/IT-AFB, IT) observed 1015 UTC 15 February 2019
Temperature: 11.0°C (52°F)
Dewpoint: 6.0°C (43°F) [RH = 71%]
Pressure (altimeter): 30.44 inches Hg (1031.0 mb)
Winds: variable direction winds at 2 MPH (2 knots; 1.0 m/s)
Visibility: 6 or more miles (10+ km)
Ceiling: ceiling and visibility are OK
Clouds: unknown
Weather: no significant weather observed at this time

METAR text: LIRP 150945Z 13002KT CAVOK 09/07 Q1031 NOSIG
Conditions at: LIRP (PISA (CIV/IT-AFB, IT) observed 0945 UTC 15 February 2019
Temperature: 9.0°C (48°F)
Dewpoint: 7.0°C (45°F) [RH = 87%]
Pressure (altimeter): 30.44 inches Hg (1031.0 mb)
Winds: from the SE (130 degrees) at 2 MPH (2 knots; 1.0 m/s)
Visibility: 6 or more miles (10+ km)
Ceiling: ceiling and visibility are OK
Clouds: unknown
Weather: no significant weather observed at this time

METAR text: LIRP 150915Z 11003KT CAVOK 07/06 Q1031 NOSIG
Conditions at: LIRP (PISA (CIV/IT-AFB, IT) observed 0915 UTC 15 February 2019
Temperature: 7.0°C (45°F)
Dewpoint: 6.0°C (43°F) [RH = 93%]
Pressure (altimeter): 30.44 inches Hg (1031.0 mb)
Winds: from the ESE (110 degrees) at 3 MPH (3 knots; 1.5 m/s)
Visibility: 6 or more miles (10+ km)
Ceiling: ceiling and visibility are OK
Clouds: unknown
Weather: no significant weather observed at this time

Forecast for: LIRP (PISA (CIV/IT-AFB, IT)
Text: TAF LIRP 161700Z 1618/1718 11005KT CAVOK
Forecast period: 1800 to 2000 UTC 16 February 2019
Forecast type: FROM: standard forecast or significant change
Winds: from the ESE (110 degrees) at 6 MPH (5 knots; 2.6 m/s)
Visibility: 6 or more miles 10+ km)
Ceiling: unknown
Clouds: missing
Weather: NSW  (no significant weather)
Text: TEMPO 1618/1624 30007KT
Forecast period: 1800 UTC 16 February 2019 to 0000 UTC 17 February 2019
Forecast type: TEMPORARY: The following changes expected for less than half the time period
Winds: from the WNW (300 degrees) at 8 MPH (7 knots; 3.6 m/s)
Visibility: missing
Ceiling: unknown
Clouds: missing
Weather: no significant weather forecast for this period
Text: BECMG 1620/1622 5000 BR NSC
Forecast period: 2000 UTC 16 February 2019 to 1800 UTC 17 February 2019
Forecast type: BECOMING: Conditions expected to become as follows by 2200 UTC 16 February 2019
Winds: from the ESE (110 degrees) at 6 MPH (5 knots; 2.6 m/s)
Visibility: 3 miles (5 km)
Ceiling: unknown
Clouds: missing
Weather: BR  (mist)
Text: TEMPO 1622/1705 0800 FG BKN002
Forecast period: 2200 UTC 16 February 2019 to 0500 UTC 17 February 2019
Forecast type: TEMPORARY: The following changes expected for less than half the time period
Visibility: 0.50 miles (0.80 km)
Ceiling: 200 feet AGL
Clouds: broken clouds at 200 feet AGL
Weather: FG  (fog)